Ro Fjord — LFEI — position and weather

sailwx.info

Track history (hours):
 
Tides and Currents Weather Stations Pressure Air Temp Water Temp Dewpoint Dewpoint Depression Visibility Wind Speed Wind Dir Waves Ship Positions

Ro Fjord

Last reported at 2018-Feb-20 19:30 UTC. Time now 2018-Feb-20 19:51 UTC.
Position N 61°38' E 004°59'.

Length 72 m; draft 6.4 m.

Type: Ship. MMSI: 257430000.

Date/timePositionNaut miles runAvg speedWind from/ knotsBaromVisibWave heightAir tempDewpointWater temp
2018-Feb-20 19:30N 61°38' E 004°59'510.2
2018-Feb-20 19:00N 61°43' E 004°58'510.4
2018-Feb-20 18:29N 61°47' E 005°05'610.8
2018-Feb-20 17:59N 61°50' E 005°15'4 7.8
2018-Feb-20 17:30N 61°53' E 005°10'3 6.5
2018-Feb-20 16:59N 61°56' E 005°08'3 6.6
2018-Feb-20 16:29N 61°59' E 005°10'510.2
2018-Feb-20 16:00N 62°04' E 005°07'510.4
2018-Feb-20 15:29N 62°09' E 005°04'4 9.0
2018-Feb-20 15:00N 62°13' E 005°08'510.6
2018-Feb-20 14:30N 62°16' E 005°18'510.6
2018-Feb-20 14:00N 62°18' E 005°28'510.5
2018-Feb-20 13:30N 62°19' E 005°39'0 0.6
2018-Feb-20 13:00N 62°19' E 005°39'0 0.0
2018-Feb-20 12:29N 62°19' E 005°39'0 0.0
2018-Feb-20 12:00N 62°19' E 005°39'0 0.0
2018-Feb-20 11:30N 62°19' E 005°39'0 0.0
2018-Feb-20 11:00N 62°19' E 005°39'0 0.0
2018-Feb-20 10:30N 62°19' E 005°39'0 0.0
2018-Feb-20 10:00N 62°19' E 005°39'0 0.0
2018-Feb-20 09:30N 62°19' E 005°39'0 0.0
2018-Feb-20 09:00N 62°19' E 005°39'0 0.0
2018-Feb-20 08:30N 62°19' E 005°39'0 0.0
2018-Feb-20 08:00N 62°19' E 005°39'0 0.0
2018-Feb-20 07:30N 62°19' E 005°39'0 0.0
2018-Feb-20 07:00N 62°19' E 005°39'0 0.0
2018-Feb-20 06:29N 62°19' E 005°39'0 0.0
2018-Feb-20 06:00N 62°19' E 005°39'0 0.0
2018-Feb-20 05:30N 62°19' E 005°39'0 0.0
2018-Feb-20 05:00N 62°19' E 005°39'0 0.0
2018-Feb-20 04:30N 62°19' E 005°39'0 0.0
2018-Feb-20 04:00N 62°19' E 005°39'0 0.0
2018-Feb-20 03:30N 62°19' E 005°39'0 0.0
2018-Feb-20 03:00N 62°19' E 005°39'0 0.0
2018-Feb-20 02:30N 62°19' E 005°39'0 0.0
2018-Feb-20 01:59N 62°19' E 005°39'0 0.0
2018-Feb-20 01:30N 62°19' E 005°39'0 0.0
2018-Feb-20 01:00N 62°19' E 005°39'0 0.0
2018-Feb-20 00:30N 62°19' E 005°39'0 0.0
2018-Feb-20 00:00N 62°19' E 005°39'0 0.0
2018-Feb-19 23:30N 62°19' E 005°39'0 0.0
2018-Feb-19 23:00N 62°19' E 005°39'0 0.0
2018-Feb-19 22:29N 62°19' E 005°39'0 0.0
2018-Feb-19 22:00N 62°19' E 005°39'0 0.0
2018-Feb-19 21:30N 62°19' E 005°39'1 2.1
2018-Feb-19 21:00N 62°19' E 005°38'5 9.1
2018-Feb-19 20:30N 62°15' E 005°31'5 9.2
2018-Feb-19 19:59N 62°11' E 005°35'5 9.4
2018-Feb-19 19:29N 62°12' E 005°45'5 9.5
2018-Feb-19 19:00N 62°12' E 005°55'5 9.7
2018-Feb-19 18:30N 62°08' E 006°01'0 0.9
2018-Feb-19 18:00N 62°08' E 006°01'0 0.0
2018-Feb-19 17:30N 62°08' E 006°01'2 4.0
2018-Feb-19 17:00N 62°10' E 005°59'5 9.1
2018-Feb-19 16:30N 62°12' E 005°51'611.2
2018-Feb-19 16:00N 62°11' E 005°39'3 5.4
2018-Feb-19 15:29N 62°12' E 005°34'0 0.1
2018-Feb-19 15:00N 62°12' E 005°34'0 0.0
2018-Feb-19 14:30N 62°12' E 005°34'0 0.0
2018-Feb-19 13:59N 62°12' E 005°34'0 0.0
2018-Feb-19 13:30N 62°12' E 005°34'0 0.0
2018-Feb-19 13:00N 62°12' E 005°34'0 0.0
2018-Feb-19 12:30N 62°12' E 005°34'0 0.0
2018-Feb-19 11:59N 62°12' E 005°34'0 0.0
2018-Feb-19 11:30N 62°12' E 005°34'0 0.0
2018-Feb-19 11:00N 62°12' E 005°34'0 0.0
2018-Feb-19 10:30N 62°12' E 005°34'0 0.0
2018-Feb-19 10:00N 62°12' E 005°34'0 0.0
2018-Feb-19 09:30N 62°12' E 005°34'0 0.0
2018-Feb-19 09:00N 62°12' E 005°34'0 0.0
2018-Feb-19 08:30N 62°12' E 005°34'0 0.0
2018-Feb-19 07:59N 62°12' E 005°34'0 0.0
2018-Feb-19 07:30N 62°12' E 005°34'0 0.0
2018-Feb-19 07:00N 62°12' E 005°34'0 0.0
2018-Feb-19 06:30N 62°12' E 005°34'0 0.0
2018-Feb-19 06:00N 62°12' E 005°34'0 0.0
2018-Feb-19 05:30N 62°12' E 005°34'0 0.0
2018-Feb-19 04:59N 62°12' E 005°34'0 0.0
2018-Feb-19 04:30N 62°12' E 005°34'0 0.0
2018-Feb-19 04:00N 62°12' E 005°34'0 0.0
2018-Feb-19 03:30N 62°12' E 005°34'0 0.0
2018-Feb-19 03:00N 62°12' E 005°34'0 0.0
2018-Feb-19 02:30N 62°12' E 005°34'0 0.0
2018-Feb-19 02:00N 62°12' E 005°34'0 0.0
2018-Feb-19 01:30N 62°12' E 005°34'0 0.0
2018-Feb-19 01:00N 62°12' E 005°34'0 0.0
2018-Feb-19 00:30N 62°12' E 005°34'0 0.0
2018-Feb-19 00:00N 62°12' E 005°34'0 0.0
2018-Feb-18 23:29N 62°12' E 005°34'0 0.0
2018-Feb-18 23:00N 62°12' E 005°34'0 0.0
2018-Feb-18 22:28N 62°12' E 005°34'0 0.0
2018-Feb-18 22:00N 62°12' E 005°34'0 0.0
2018-Feb-18 21:30N 62°12' E 005°34'0 0.0
2018-Feb-18 21:00N 62°12' E 005°34'0 0.0
2018-Feb-18 20:30N 62°12' E 005°34'0 0.0
2018-Feb-18 20:00N 62°12' E 005°34'0 0.0
2018-Feb-18 19:30N 62°12' E 005°34'0 0.0
2018-Feb-18 19:00N 62°12' E 005°34'0 0.0
2018-Feb-18 18:28N 62°12' E 005°34'0 0.0
2018-Feb-18 18:00N 62°12' E 005°34'0 0.0
2018-Feb-18 17:30N 62°12' E 005°34'0 0.0
2018-Feb-18 17:00N 62°12' E 005°34'0 0.0
2018-Feb-18 16:30N 62°12' E 005°34'0 0.0
2018-Feb-18 16:00N 62°12' E 005°34'0 0.0
2018-Feb-18 15:29N 62°12' E 005°34'0 0.0
2018-Feb-18 15:00N 62°12' E 005°34'0 0.0
2018-Feb-18 14:29N 62°12' E 005°34'0 0.0
2018-Feb-18 14:00N 62°12' E 005°34'0 0.0
2018-Feb-18 13:30N 62°12' E 005°34'0 0.0
2018-Feb-18 13:00N 62°12' E 005°34'0 0.0
2018-Feb-18 12:30N 62°12' E 005°34'0 0.0
2018-Feb-18 11:58N 62°12' E 005°34'0 0.0
2018-Feb-18 11:30N 62°12' E 005°34'0 0.0
2018-Feb-18 11:00N 62°12' E 005°34'0 0.0
2018-Feb-18 10:30N 62°12' E 005°34'0 0.0
2018-Feb-18 10:00N 62°12' E 005°34'0 0.0
2018-Feb-18 09:30N 62°12' E 005°34'0 0.0
2018-Feb-18 09:00N 62°12' E 005°34'0 0.0
2018-Feb-18 08:30N 62°12' E 005°34'0 0.0
2018-Feb-18 08:00N 62°12' E 005°34'0 0.0
2018-Feb-18 07:30N 62°12' E 005°34'0 0.0
2018-Feb-18 06:59N 62°12' E 005°34'0 0.0
2018-Feb-18 06:30N 62°12' E 005°34'0 0.0
2018-Feb-18 06:00N 62°12' E 005°34'0 0.0
2018-Feb-18 05:29N 62°12' E 005°34'0 0.0
2018-Feb-18 05:00N 62°12' E 005°34'0 0.0
2018-Feb-18 04:30N 62°12' E 005°34'0 0.0
2018-Feb-18 03:59N 62°12' E 005°34'0 0.0
2018-Feb-18 03:28N 62°12' E 005°34'0 0.0
2018-Feb-18 02:59N 62°12' E 005°34'0 0.0
2018-Feb-18 02:30N 62°12' E 005°34'0 0.0
2018-Feb-18 02:00N 62°12' E 005°34'0 0.0
2018-Feb-18 01:30N 62°12' E 005°34'0 0.0
2018-Feb-18 01:00N 62°12' E 005°34'0 0.0
2018-Feb-18 00:29N 62°12' E 005°34'0 0.0
2018-Feb-18 00:00N 62°12' E 005°34'0 0.0
2018-Feb-17 23:30N 62°12' E 005°34'0 0.0
2018-Feb-17 23:00N 62°12' E 005°34'0 0.0
2018-Feb-17 22:30N 62°12' E 005°34'0 0.0
2018-Feb-17 22:00N 62°12' E 005°34'0 0.0
2018-Feb-17 21:30N 62°12' E 005°34'0 0.0
2018-Feb-17 21:00N 62°12' E 005°34'0 0.0
2018-Feb-17 20:29N 62°12' E 005°34'0 0.0
2018-Feb-17 20:00N 62°12' E 005°34'0 0.0
2018-Feb-17 19:30N 62°12' E 005°34'0 0.0
2018-Feb-17 19:00N 62°12' E 005°34'0 0.0
2018-Feb-17 18:30N 62°12' E 005°34'0 0.0
2018-Feb-17 18:00N 62°12' E 005°34'0 0.0
2018-Feb-17 17:30N 62°12' E 005°34'0 0.0
2018-Feb-17 17:00N 62°12' E 005°34'0 0.0
2018-Feb-17 16:30N 62°12' E 005°34'0 0.0
2018-Feb-17 16:00N 62°12' E 005°34'0 0.0
2018-Feb-17 15:30N 62°12' E 005°34'0 0.0
2018-Feb-17 15:00N 62°12' E 005°34'0 0.0
2018-Feb-17 14:30N 62°12' E 005°34'0 0.0
2018-Feb-17 14:00N 62°12' E 005°34'0 0.0
2018-Feb-17 13:30N 62°12' E 005°34'0 0.0
2018-Feb-17 12:59N 62°12' E 005°34'0 0.0
2018-Feb-17 12:29N 62°12' E 005°34'0 0.0
2018-Feb-17 12:00N 62°12' E 005°34'0 0.0
2018-Feb-17 11:30N 62°12' E 005°34'0 0.0
2018-Feb-17 11:00N 62°12' E 005°34'0 0.0
2018-Feb-17 10:28N 62°12' E 005°34'0 0.0
2018-Feb-17 09:59N 62°12' E 005°34'0 0.0
2018-Feb-17 09:30N 62°12' E 005°34'0 0.0
2018-Feb-17 08:59N 62°12' E 005°34'0 0.0
2018-Feb-17 08:30N 62°12' E 005°34'0 0.0
2018-Feb-17 08:00N 62°12' E 005°34'0 0.0
2018-Feb-17 07:30N 62°12' E 005°34'0 0.0
2018-Feb-17 07:00N 62°12' E 005°34'0 0.0
2018-Feb-17 06:30N 62°12' E 005°34'0 0.0
2018-Feb-17 06:00N 62°12' E 005°34'0 0.0
2018-Feb-17 05:30N 62°12' E 005°34'0 0.0
2018-Feb-17 05:00N 62°12' E 005°34'0 0.0
2018-Feb-17 04:30N 62°12' E 005°34'0 0.0
2018-Feb-17 04:00N 62°12' E 005°34'0 0.0
2018-Feb-17 03:30N 62°12' E 005°34'0 0.0
2018-Feb-17 03:00N 62°12' E 005°34'0 0.0
2018-Feb-17 02:29N 62°12' E 005°34'0 0.0
2018-Feb-17 02:00N 62°12' E 005°34'0 0.0
2018-Feb-17 01:29N 62°12' E 005°34'0 0.0
2018-Feb-17 00:58N 62°12' E 005°34'0 0.0
2018-Feb-17 00:30N 62°12' E 005°34'0 0.0
2018-Feb-17 00:00N 62°12' E 005°34'0 0.0
2018-Feb-16 23:30N 62°12' E 005°34'0 0.0
2018-Feb-16 23:00N 62°12' E 005°34'0 0.0
2018-Feb-16 22:30N 62°12' E 005°34'0 0.0
2018-Feb-16 22:00N 62°12' E 005°34'0 0.0
2018-Feb-16 21:30N 62°12' E 005°34'1 1.4
2018-Feb-16 21:00N 62°12' E 005°33'1 1.1
2018-Feb-16 20:30N 62°12' E 005°32'1 1.5
2018-Feb-16 20:00N 62°13' E 005°31'1 1.7
2018-Feb-16 19:30N 62°14' E 005°31'1 1.1
2018-Feb-16 19:00N 62°13' E 005°31'0 0.9
2018-Feb-16 18:29N 62°13' E 005°31'1 1.5
2018-Feb-16 18:00N 62°13' E 005°31'1 2.4
2018-Feb-16 17:29N 62°15' E 005°30'4 7.8
2018-Feb-16 16:59N 62°18' E 005°34'3 5.6
2018-Feb-16 16:30N 62°19' E 005°39'0 0.0
2018-Feb-16 15:59N 62°19' E 005°39'0 0.0
2018-Feb-16 15:30N 62°19' E 005°39'0 0.0
2018-Feb-16 15:00N 62°19' E 005°39'0 0.0
2018-Feb-16 14:29N 62°19' E 005°39'0 0.0
2018-Feb-16 14:00N 62°19' E 005°39'0 0.0
2018-Feb-16 13:30N 62°19' E 005°39'0 0.0
2018-Feb-16 13:00N 62°19' E 005°39'0 0.0
2018-Feb-16 12:29N 62°19' E 005°39'0 0.0
2018-Feb-16 12:00N 62°19' E 005°39'0 0.0
2018-Feb-16 11:30N 62°19' E 005°39'0 0.0
2018-Feb-16 11:00N 62°19' E 005°39'0 0.0
2018-Feb-16 10:30N 62°19' E 005°39'0 0.0
2018-Feb-16 10:00N 62°19' E 005°39'0 0.0
2018-Feb-16 09:30N 62°19' E 005°39'0 0.0
2018-Feb-16 09:00N 62°19' E 005°39'0 0.0
2018-Feb-16 08:30N 62°19' E 005°39'0 0.0
2018-Feb-16 08:00N 62°19' E 005°39'0 0.0
2018-Feb-16 07:30N 62°19' E 005°39'0 0.0
2018-Feb-16 07:00N 62°19' E 005°39'0 0.0
2018-Feb-16 06:29N 62°19' E 005°39'0 0.0
2018-Feb-16 06:00N 62°19' E 005°39'0 0.0
2018-Feb-16 05:30N 62°19' E 005°39'0 0.0
2018-Feb-16 05:00N 62°19' E 005°39'0 0.0
2018-Feb-16 04:30N 62°19' E 005°39'0 0.0
2018-Feb-16 04:00N 62°19' E 005°39'0 0.0
2018-Feb-16 03:30N 62°19' E 005°39'2 4.7
2018-Feb-16 03:00N 62°18' E 005°35'5 9.6
2018-Feb-16 02:30N 62°17' E 005°25'5 9.8
2018-Feb-16 01:59N 62°15' E 005°15'510.2
2018-Feb-16 01:30N 62°12' E 005°06'5 9.2
2018-Feb-16 01:00N 62°08' E 005°05'5 9.7
2018-Feb-16 00:30N 62°03' E 005°08'510.1
2018-Feb-16 00:00N 61°58' E 005°09'4 8.8
2018-Feb-15 23:30N 61°54' E 005°10'510.4
2018-Feb-15 23:00N 61°54' E 005°21'510.1
2018-Feb-15 22:30N 61°55' E 005°31'3 6.5
2018-Feb-15 22:00N 61°54' E 005°38'0 0.0
2018-Feb-15 21:30N 61°54' E 005°38'0 0.0
2018-Feb-15 21:00N 61°54' E 005°38'0 0.0
2018-Feb-15 20:30N 61°54' E 005°38'0 0.0
2018-Feb-15 20:00N 61°54' E 005°38'0 0.0
2018-Feb-15 19:30N 61°54' E 005°38'0 0.0
2018-Feb-15 19:00N 61°54' E 005°38'0 0.0
2018-Feb-15 18:30N 61°54' E 005°38'0 0.0
2018-Feb-15 18:00N 61°54' E 005°38'0 0.0
2018-Feb-15 17:30N 61°54' E 005°38'0 0.0
2018-Feb-15 16:59N 61°54' E 005°38'0 0.3
2018-Feb-15 16:31N 61°54' E 005°38'1 1.3
2018-Feb-15 15:58N 61°54' E 005°39'0 0.8
2018-Feb-15 15:30N 61°54' E 005°40'0 0.3
2018-Feb-15 15:00N 61°54' E 005°40'0 0.8
2018-Feb-15 14:30N 61°54' E 005°40'0 0.7
2018-Feb-15 14:00N 61°54' E 005°39'0 0.8
2018-Feb-15 13:30N 61°54' E 005°38'0 0.7
2018-Feb-15 13:00N 61°54' E 005°37'0 0.4
2018-Feb-15 12:29N 61°54' E 005°37'0 0.5
2018-Feb-15 12:00N 61°55' E 005°37'0 0.4
2018-Feb-15 11:30N 61°55' E 005°37'0 0.4
2018-Feb-15 11:00N 61°55' E 005°36'0 0.4
2018-Feb-15 10:30N 61°55' E 005°37'0 0.4
2018-Feb-15 10:00N 61°55' E 005°37'0 0.4
2018-Feb-15 09:30N 61°55' E 005°37'0 0.0
2018-Feb-15 09:00N 61°55' E 005°37'1 1.7
2018-Feb-15 08:30N 61°55' E 005°35'1 2.7
2018-Feb-15 08:00N 61°55' E 005°33'3 6.6
2018-Feb-15 07:30N 61°55' E 005°26'4 7.4
2018-Feb-15 07:00N 61°54' E 005°18'4 8.6
2018-Feb-15 06:30N 61°54' E 005°09'2 4.6
2018-Feb-15 06:00N 61°56' E 005°07'0 0.0
2018-Feb-15 05:29N 61°56' E 005°07'0 0.0
2018-Feb-15 05:00N 61°56' E 005°07'0 0.0
2018-Feb-15 04:30N 61°56' E 005°07'0 0.0
2018-Feb-15 04:00N 61°56' E 005°07'0 0.0
2018-Feb-15 03:30N 61°56' E 005°07'0 0.0
2018-Feb-15 03:00N 61°56' E 005°07'0 0.0
2018-Feb-15 02:30N 61°56' E 005°07'0 0.0
2018-Feb-15 02:00N 61°56' E 005°07'0 0.0
2018-Feb-15 01:30N 61°56' E 005°07'0 0.0
2018-Feb-15 01:00N 61°56' E 005°07'0 0.0
2018-Feb-15 00:30N 61°56' E 005°07'0 0.0
2018-Feb-15 00:00N 61°56' E 005°07'0 0.0
2018-Feb-14 23:29N 61°56' E 005°07'0 0.0
2018-Feb-14 22:59N 61°56' E 005°07'0 0.0
2018-Feb-14 22:30N 61°56' E 005°07'0 0.0
2018-Feb-14 22:00N 61°56' E 005°07'0 0.0
2018-Feb-14 21:30N 61°56' E 005°07'0 0.0
2018-Feb-14 21:00N 61°56' E 005°07'0 0.0
2018-Feb-14 20:30N 61°56' E 005°07'0 0.0
2018-Feb-14 20:00N 61°56' E 005°07'0 0.0
2018-Feb-14 19:30N 61°56' E 005°07'0 0.0
2018-Feb-14 19:00N 61°56' E 005°07'2 3.6
2018-Feb-14 18:30N 61°57' E 005°09'5 9.5
2018-Feb-14 18:00N 62°02' E 005°09'5 9.7
2018-Feb-14 17:30N 62°07' E 005°05'4 7.8
2018-Feb-14 17:00N 62°11' E 005°04'4 7.8
2018-Feb-14 16:30N 62°13' E 005°10'510.2
2018-Feb-14 15:59N 62°11' E 005°20'5 9.2
2018-Feb-14 15:30N 62°12' E 005°29'1 2.5
2018-Feb-14 14:59N 62°13' E 005°31'1 2.3
2018-Feb-14 14:30N 62°12' E 005°31'1 1.6
2018-Feb-14 14:00N 62°13' E 005°31'1 1.5
2018-Feb-14 13:30N 62°14' E 005°31'2 4.5
2018-Feb-14 13:00N 62°16' E 005°30'5 9.5
2018-Feb-14 12:30N 62°19' E 005°39'1 1.2
2018-Feb-14 12:00N 62°19' E 005°39'0 0.0
2018-Feb-14 11:29N 62°19' E 005°39'0 0.0
2018-Feb-14 11:00N 62°19' E 005°39'0 0.0
2018-Feb-14 10:29N 62°19' E 005°39'0 0.0
2018-Feb-14 09:58N 62°19' E 005°39'0 0.0
2018-Feb-14 09:30N 62°19' E 005°39'0 0.0
2018-Feb-14 09:00N 62°19' E 005°39'0 0.0
2018-Feb-14 08:30N 62°19' E 005°39'0 0.0
2018-Feb-14 08:00N 62°19' E 005°39'0 0.0
2018-Feb-14 07:30N 62°19' E 005°39'0 0.0
2018-Feb-14 07:00N 62°19' E 005°39'0 0.0
2018-Feb-14 06:30N 62°19' E 005°39'0 0.0
2018-Feb-14 06:00N 62°19' E 005°39'0 0.0
2018-Feb-14 05:30N 62°19' E 005°39'0 0.0
2018-Feb-14 05:00N 62°19' E 005°39'0 0.0
2018-Feb-14 04:30N 62°19' E 005°39'0 0.0
2018-Feb-14 03:59N 62°19' E 005°39'0 0.0
2018-Feb-14 03:30N 62°19' E 005°39'0 0.0
2018-Feb-14 03:00N 62°19' E 005°39'0 0.0
2018-Feb-14 02:30N 62°19' E 005°39'0 0.0
2018-Feb-14 02:00N 62°19' E 005°39'0 0.0
2018-Feb-14 01:30N 62°19' E 005°39'0 0.0
2018-Feb-14 00:59N 62°19' E 005°39'0 0.0
2018-Feb-14 00:30N 62°19' E 005°39'0 0.0
2018-Feb-14 00:00N 62°19' E 005°39'0 0.0
2018-Feb-13 23:30N 62°19' E 005°39'0 0.0
2018-Feb-13 23:00N 62°19' E 005°39'0 0.0
2018-Feb-13 22:30N 62°19' E 005°39'0 0.0
2018-Feb-13 22:00N 62°19' E 005°39'0 0.0
2018-Feb-13 21:29N 62°19' E 005°39'0 0.0
2018-Feb-13 21:00N 62°19' E 005°39'0 0.5
2018-Feb-13 20:30N 62°19' E 005°40'5 8.8
2018-Feb-13 19:59N 62°18' E 005°31'5 9.5
2018-Feb-13 19:29N 62°17' E 005°21'5 9.9
2018-Feb-13 19:00N 62°14' E 005°12'510.1
2018-Feb-13 18:30N 62°11' E 005°04'5 9.9
2018-Feb-13 18:00N 62°06' E 005°06'5 9.5
2018-Feb-13 17:29N 62°03' E 005°15'4 7.2
2018-Feb-13 16:59N 62°01' E 005°20'0 0.0
2018-Feb-13 16:30N 62°01' E 005°20'0 0.5
2018-Feb-13 15:59N 62°01' E 005°19'4 9.0
2018-Feb-13 15:29N 62°04' E 005°13'5 9.4
2018-Feb-13 15:00N 62°07' E 005°05'4 8.6
2018-Feb-13 14:30N 62°11' E 005°04'5 9.2
2018-Feb-13 14:00N 62°14' E 005°12'5 9.6
2018-Feb-13 13:30N 62°17' E 005°21'510.4
2018-Feb-13 13:00N 62°18' E 005°32'4 8.0
2018-Feb-13 12:30N 62°19' E 005°39'0 0.1
2018-Feb-13 12:00N 62°19' E 005°39'0 0.0
2018-Feb-13 11:30N 62°19' E 005°39'0 0.0
2018-Feb-13 11:00N 62°19' E 005°39'0 0.0
2018-Feb-13 10:30N 62°19' E 005°39'0 0.0
2018-Feb-13 10:00N 62°19' E 005°39'0 0.0
2018-Feb-13 09:30N 62°19' E 005°39'0 0.0
2018-Feb-13 09:00N 62°19' E 005°39'0 0.0
2018-Feb-13 08:29N 62°19' E 005°39'0 0.0
2018-Feb-13 08:00N 62°19' E 005°39'0 0.0
2018-Feb-13 07:30N 62°19' E 005°39'0 0.0
2018-Feb-13 07:00N 62°19' E 005°39'0 0.0
2018-Feb-13 06:29N 62°19' E 005°39'0 0.0
2018-Feb-13 06:00N 62°19' E 005°39'0 0.0
2018-Feb-13 05:30N 62°19' E 005°39'0 0.0
2018-Feb-13 05:00N 62°19' E 005°39'0 0.0
2018-Feb-13 04:30N 62°19' E 005°39'0 0.0
2018-Feb-13 04:00N 62°19' E 005°39'0 0.0
2018-Feb-13 03:30N 62°19' E 005°39'0 0.0
2018-Feb-13 03:00N 62°19' E 005°39'0 0.0
2018-Feb-13 02:30N 62°19' E 005°39'0 0.0
2018-Feb-13 02:00N 62°19' E 005°39'0 0.0
2018-Feb-13 01:30N 62°19' E 005°39'0 0.0
2018-Feb-13 01:00N 62°19' E 005°39'0 0.0
2018-Feb-13 00:30N 62°19' E 005°39'0 0.2
2018-Feb-13 00:00N 62°19' E 005°40'3 5.4
2018-Feb-12 23:30N 62°18' E 005°34'5 9.0
2018-Feb-12 23:00N 62°17' E 005°25'5 9.5
2018-Feb-12 22:30N 62°15' E 005°15'5 9.3
2018-Feb-12 22:00N 62°13' E 005°07'4 8.5
2018-Feb-12 21:29N 62°08' E 005°05'4 8.1
2018-Feb-12 21:00N 62°05' E 005°09'5 9.0
2018-Feb-12 20:29N 62°02' E 005°17'2 4.6
2018-Feb-12 19:59N 62°01' E 005°20'0 0.0
2018-Feb-12 19:30N 62°01' E 005°20'0 0.0
2018-Feb-12 19:00N 62°01' E 005°20'0 0.1
2018-Feb-12 18:29N 62°01' E 005°20'0 0.0
2018-Feb-12 18:00N 62°01' E 005°20'2 3.8
2018-Feb-12 17:29N 62°02' E 005°17'510.9
2018-Feb-12 16:59N 62°05' E 005°08'5 9.6
2018-Feb-12 16:30N 62°10' E 005°04'4 8.8
2018-Feb-12 16:00N 62°13' E 005°10'5 9.3
2018-Feb-12 15:30N 62°11' E 005°19'5 9.3
2018-Feb-12 15:00N 62°12' E 005°28'5 9.7
2018-Feb-12 14:30N 62°17' E 005°31'5 9.2
2018-Feb-12 14:00N 62°19' E 005°40'0 0.6
2018-Feb-12 13:30N 62°19' E 005°39'0 0.0
2018-Feb-12 13:00N 62°19' E 005°39'0 0.0
2018-Feb-12 12:30N 62°19' E 005°39'0 0.0
2018-Feb-12 12:00N 62°19' E 005°39'0 0.0
2018-Feb-12 11:30N 62°19' E 005°39'0 0.0
2018-Feb-12 11:00N 62°19' E 005°39'0 0.0
2018-Feb-12 10:30N 62°19' E 005°39'0 0.0
2018-Feb-12 10:00N 62°19' E 005°39'0 0.0
2018-Feb-12 09:30N 62°19' E 005°39'0 0.0
2018-Feb-12 09:00N 62°19' E 005°39'0 0.0
2018-Feb-12 08:30N 62°19' E 005°39'0 0.0
2018-Feb-12 08:00N 62°19' E 005°39'0 0.0
2018-Feb-12 07:30N 62°19' E 005°39'0 0.0
2018-Feb-12 06:59N 62°19' E 005°39'0 0.0
2018-Feb-12 06:30N 62°19' E 005°39'0 0.0
2018-Feb-12 06:00N 62°19' E 005°39'0 0.1
2018-Feb-12 05:30N 62°19' E 005°39'0 0.1
2018-Feb-12 05:00N 62°19' E 005°39'0 0.0
2018-Feb-12 04:30N 62°19' E 005°39'0 0.0
2018-Feb-12 04:00N 62°19' E 005°39'0 0.0
2018-Feb-12 03:30N 62°19' E 005°39'0 0.0
2018-Feb-12 03:00N 62°19' E 005°39'0 0.0
2018-Feb-12 02:30N 62°19' E 005°39'0 0.0
2018-Feb-12 02:00N 62°19' E 005°39'0 0.0
2018-Feb-12 01:30N 62°19' E 005°39'0 0.0
2018-Feb-12 01:00N 62°19' E 005°39'0 0.0
2018-Feb-12 00:30N 62°19' E 005°39'0 0.0
2018-Feb-12 00:00N 62°19' E 005°39'0 0.0
2018-Feb-11 23:30N 62°19' E 005°39'0 0.0
2018-Feb-11 23:00N 62°19' E 005°39'0 0.0
2018-Feb-11 22:30N 62°19' E 005°39'0 0.0
2018-Feb-11 22:00N 62°19' E 005°39'0 0.0
2018-Feb-11 21:30N 62°19' E 005°39'0 0.0
2018-Feb-11 20:59N 62°19' E 005°39'3 5.3
2018-Feb-11 20:30N 62°18' E 005°35'5 9.1
2018-Feb-11 20:00N 62°14' E 005°31'5 9.1
2018-Feb-11 19:30N 62°11' E 005°38'510.2
2018-Feb-11 19:00N 62°12' E 005°48'5 9.2
2018-Feb-11 18:30N 62°11' E 005°58'3 6.2
2018-Feb-11 18:00N 62°08' E 006°01'0 0.0
2018-Feb-11 17:30N 62°08' E 006°01'0 0.0
2018-Feb-11 17:00N 62°08' E 006°01'3 6.0
2018-Feb-11 16:29N 62°11' E 005°58'5 9.7
2018-Feb-11 16:00N 62°12' E 005°48'510.8
2018-Feb-11 15:30N 62°11' E 005°37'5 9.4
2018-Feb-11 15:00N 62°15' E 005°31'5 9.4
2018-Feb-11 14:30N 62°18' E 005°36'2 3.4
2018-Feb-11 14:00N 62°19' E 005°39'0 0.0
2018-Feb-11 13:30N 62°19' E 005°39'0 0.0
2018-Feb-11 13:00N 62°19' E 005°39'0 0.0
2018-Feb-11 12:30N 62°19' E 005°39'0 0.0
2018-Feb-11 12:00N 62°19' E 005°39'0 0.0
2018-Feb-11 11:30N 62°19' E 005°39'0 0.0
2018-Feb-11 11:00N 62°19' E 005°39'0 0.0
2018-Feb-11 10:30N 62°19' E 005°39'0 0.0
2018-Feb-11 10:00N 62°19' E 005°39'0 0.0
2018-Feb-11 09:30N 62°19' E 005°39'0 0.0
2018-Feb-11 09:00N 62°19' E 005°39'0 0.0
2018-Feb-11 08:30N 62°19' E 005°39'0 0.0
2018-Feb-11 08:00N 62°19' E 005°39'0 0.0
2018-Feb-11 07:30N 62°19' E 005°39'0 0.0
2018-Feb-11 06:59N 62°19' E 005°39'0 0.0
2018-Feb-11 06:30N 62°19' E 005°39'0 0.0
2018-Feb-11 06:00N 62°19' E 005°39'0 0.0
2018-Feb-11 05:29N 62°19' E 005°39'0 0.0
2018-Feb-11 05:00N 62°19' E 005°39'0 0.0
2018-Feb-11 04:30N 62°19' E 005°39'0 0.0
2018-Feb-11 04:00N 62°19' E 005°39'0 0.0
2018-Feb-11 03:30N 62°19' E 005°39'0 0.0
2018-Feb-11 03:00N 62°19' E 005°39'0 0.0
2018-Feb-11 02:29N 62°19' E 005°39'0 0.0
2018-Feb-11 02:00N 62°19' E 005°39'0 0.0
2018-Feb-11 01:30N 62°19' E 005°39'0 0.0
2018-Feb-11 01:00N 62°19' E 005°39'0 0.0
2018-Feb-11 00:30N 62°19' E 005°39'0 0.0
2018-Feb-11 00:00N 62°19' E 005°39'0 0.0
2018-Feb-10 23:30N 62°19' E 005°39'0 0.0
2018-Feb-10 23:00N 62°19' E 005°39'0 0.0
2018-Feb-10 22:30N 62°19' E 005°39'0 0.0
2018-Feb-10 22:00N 62°19' E 005°39'0 0.0
2018-Feb-10 21:29N 62°19' E 005°39'0 0.0
2018-Feb-10 21:00N 62°19' E 005°39'0 0.0
2018-Feb-10 20:30N 62°19' E 005°39'0 0.0
2018-Feb-10 20:00N 62°19' E 005°39'0 0.0
2018-Feb-10 19:30N 62°19' E 005°39'  
Track history (hours):
 
Tides and Currents Weather Stations Pressure Air Temp Water Temp Dewpoint Dewpoint Depression Visibility Wind Speed Wind Dir Waves Ship Positions

Ro Fjord

Last reported at 2018-Feb-20 19:30 UTC. Time now 2018-Feb-20 19:51 UTC.
Position N 61°38' E 004°59'.

Length 72 m; draft 6.4 m.

Type: Ship. MMSI: 257430000.

Date/timePositionNaut miles runAvg speedWind from/ knotsBaromVisibWave heightAir tempDewpointWater temp
2018-Feb-20 19:30N 61°38' E 004°59'510.2
2018-Feb-20 19:00N 61°43' E 004°58'510.4
2018-Feb-20 18:29N 61°47' E 005°05'610.8
2018-Feb-20 17:59N 61°50' E 005°15'4 7.8
2018-Feb-20 17:30N 61°53' E 005°10'3 6.5
2018-Feb-20 16:59N 61°56' E 005°08'3 6.6
2018-Feb-20 16:29N 61°59' E 005°10'510.2
2018-Feb-20 16:00N 62°04' E 005°07'510.4
2018-Feb-20 15:29N 62°09' E 005°04'4 9.0
2018-Feb-20 15:00N 62°13' E 005°08'510.6
2018-Feb-20 14:30N 62°16' E 005°18'510.6
2018-Feb-20 14:00N 62°18' E 005°28'510.5
2018-Feb-20 13:30N 62°19' E 005°39'0 0.6
2018-Feb-20 13:00N 62°19' E 005°39'0 0.0
2018-Feb-20 12:29N 62°19' E 005°39'0 0.0
2018-Feb-20 12:00N 62°19' E 005°39'0 0.0
2018-Feb-20 11:30N 62°19' E 005°39'0 0.0
2018-Feb-20 11:00N 62°19' E 005°39'0 0.0
2018-Feb-20 10:30N 62°19' E 005°39'0 0.0
2018-Feb-20 10:00N 62°19' E 005°39'0 0.0
2018-Feb-20 09:30N 62°19' E 005°39'0 0.0
2018-Feb-20 09:00N 62°19' E 005°39'0 0.0
2018-Feb-20 08:30N 62°19' E 005°39'0 0.0
2018-Feb-20 08:00N 62°19' E 005°39'0 0.0
2018-Feb-20 07:30N 62°19' E 005°39'0 0.0
2018-Feb-20 07:00N 62°19' E 005°39'0 0.0
2018-Feb-20 06:29N 62°19' E 005°39'0 0.0
2018-Feb-20 06:00N 62°19' E 005°39'0 0.0
2018-Feb-20 05:30N 62°19' E 005°39'0 0.0
2018-Feb-20 05:00N 62°19' E 005°39'0 0.0
2018-Feb-20 04:30N 62°19' E 005°39'0 0.0
2018-Feb-20 04:00N 62°19' E 005°39'0 0.0
2018-Feb-20 03:30N 62°19' E 005°39'0 0.0
2018-Feb-20 03:00N 62°19' E 005°39'0 0.0
2018-Feb-20 02:30N 62°19' E 005°39'0 0.0
2018-Feb-20 01:59N 62°19' E 005°39'0 0.0
2018-Feb-20 01:30N 62°19' E 005°39'0 0.0
2018-Feb-20 01:00N 62°19' E 005°39'0 0.0
2018-Feb-20 00:30N 62°19' E 005°39'0 0.0
2018-Feb-20 00:00N 62°19' E 005°39'0 0.0
2018-Feb-19 23:30N 62°19' E 005°39'0 0.0
2018-Feb-19 23:00N 62°19' E 005°39'0 0.0
2018-Feb-19 22:29N 62°19' E 005°39'0 0.0
2018-Feb-19 22:00N 62°19' E 005°39'0 0.0
2018-Feb-19 21:30N 62°19' E 005°39'1 2.1
2018-Feb-19 21:00N 62°19' E 005°38'5 9.1
2018-Feb-19 20:30N 62°15' E 005°31'5 9.2
2018-Feb-19 19:59N 62°11' E 005°35'5 9.4
2018-Feb-19 19:29N 62°12' E 005°45'5 9.5
2018-Feb-19 19:00N 62°12' E 005°55'5 9.7
2018-Feb-19 18:30N 62°08' E 006°01'0 0.9
2018-Feb-19 18:00N 62°08' E 006°01'0 0.0
2018-Feb-19 17:30N 62°08' E 006°01'2 4.0
2018-Feb-19 17:00N 62°10' E 005°59'5 9.1
2018-Feb-19 16:30N 62°12' E 005°51'611.2
2018-Feb-19 16:00N 62°11' E 005°39'3 5.4
2018-Feb-19 15:29N 62°12' E 005°34'0 0.1
2018-Feb-19 15:00N 62°12' E 005°34'0 0.0
2018-Feb-19 14:30N 62°12' E 005°34'0 0.0
2018-Feb-19 13:59N 62°12' E 005°34'0 0.0
2018-Feb-19 13:30N 62°12' E 005°34'0 0.0
2018-Feb-19 13:00N 62°12' E 005°34'0 0.0
2018-Feb-19 12:30N 62°12' E 005°34'0 0.0
2018-Feb-19 11:59N 62°12' E 005°34'0 0.0
2018-Feb-19 11:30N 62°12' E 005°34'0 0.0
2018-Feb-19 11:00N 62°12' E 005°34'0 0.0
2018-Feb-19 10:30N 62°12' E 005°34'0 0.0
2018-Feb-19 10:00N 62°12' E 005°34'0 0.0
2018-Feb-19 09:30N 62°12' E 005°34'0 0.0
2018-Feb-19 09:00N 62°12' E 005°34'0 0.0
2018-Feb-19 08:30N 62°12' E 005°34'0 0.0
2018-Feb-19 07:59N 62°12' E 005°34'0 0.0
2018-Feb-19 07:30N 62°12' E 005°34'0 0.0
2018-Feb-19 07:00N 62°12' E 005°34'0 0.0
2018-Feb-19 06:30N 62°12' E 005°34'0 0.0
2018-Feb-19 06:00N 62°12' E 005°34'0 0.0
2018-Feb-19 05:30N 62°12' E 005°34'0 0.0
2018-Feb-19 04:59N 62°12' E 005°34'0 0.0
2018-Feb-19 04:30N 62°12' E 005°34'0 0.0
2018-Feb-19 04:00N 62°12' E 005°34'0 0.0
2018-Feb-19 03:30N 62°12' E 005°34'0 0.0
2018-Feb-19 03:00N 62°12' E 005°34'0 0.0
2018-Feb-19 02:30N 62°12' E 005°34'0 0.0
2018-Feb-19 02:00N 62°12' E 005°34'0 0.0
2018-Feb-19 01:30N 62°12' E 005°34'0 0.0
2018-Feb-19 01:00N 62°12' E 005°34'0 0.0
2018-Feb-19 00:30N 62°12' E 005°34'0 0.0
2018-Feb-19 00:00N 62°12' E 005°34'0 0.0
2018-Feb-18 23:29N 62°12' E 005°34'0 0.0
2018-Feb-18 23:00N 62°12' E 005°34'0 0.0
2018-Feb-18 22:28N 62°12' E 005°34'0 0.0
2018-Feb-18 22:00N 62°12' E 005°34'0 0.0
2018-Feb-18 21:30N 62°12' E 005°34'0 0.0
2018-Feb-18 21:00N 62°12' E 005°34'0 0.0
2018-Feb-18 20:30N 62°12' E 005°34'0 0.0
2018-Feb-18 20:00N 62°12' E 005°34'0 0.0
2018-Feb-18 19:30N 62°12' E 005°34'0 0.0
2018-Feb-18 19:00N 62°12' E 005°34'0 0.0
2018-Feb-18 18:28N 62°12' E 005°34'0 0.0
2018-Feb-18 18:00N 62°12' E 005°34'0 0.0
2018-Feb-18 17:30N 62°12' E 005°34'0 0.0
2018-Feb-18 17:00N 62°12' E 005°34'0 0.0
2018-Feb-18 16:30N 62°12' E 005°34'0 0.0
2018-Feb-18 16:00N 62°12' E 005°34'0 0.0
2018-Feb-18 15:29N 62°12' E 005°34'0 0.0
2018-Feb-18 15:00N 62°12' E 005°34'0 0.0
2018-Feb-18 14:29N 62°12' E 005°34'0 0.0
2018-Feb-18 14:00N 62°12' E 005°34'0 0.0
2018-Feb-18 13:30N 62°12' E 005°34'0 0.0
2018-Feb-18 13:00N 62°12' E 005°34'0 0.0
2018-Feb-18 12:30N 62°12' E 005°34'0 0.0
2018-Feb-18 11:58N 62°12' E 005°34'0 0.0
2018-Feb-18 11:30N 62°12' E 005°34'0 0.0
2018-Feb-18 11:00N 62°12' E 005°34'0 0.0
2018-Feb-18 10:30N 62°12' E 005°34'0 0.0
2018-Feb-18 10:00N 62°12' E 005°34'0 0.0
2018-Feb-18 09:30N 62°12' E 005°34'0 0.0
2018-Feb-18 09:00N 62°12' E 005°34'0 0.0
2018-Feb-18 08:30N 62°12' E 005°34'0 0.0
2018-Feb-18 08:00N 62°12' E 005°34'0 0.0
2018-Feb-18 07:30N 62°12' E 005°34'0 0.0
2018-Feb-18 06:59N 62°12' E 005°34'0 0.0
2018-Feb-18 06:30N 62°12' E 005°34'0 0.0
2018-Feb-18 06:00N 62°12' E 005°34'0 0.0
2018-Feb-18 05:29N 62°12' E 005°34'0 0.0
2018-Feb-18 05:00N 62°12' E 005°34'0 0.0
2018-Feb-18 04:30N 62°12' E 005°34'0 0.0
2018-Feb-18 03:59N 62°12' E 005°34'0 0.0
2018-Feb-18 03:28N 62°12' E 005°34'0 0.0
2018-Feb-18 02:59N 62°12' E 005°34'0 0.0
2018-Feb-18 02:30N 62°12' E 005°34'0 0.0
2018-Feb-18 02:00N 62°12' E 005°34'0 0.0
2018-Feb-18 01:30N 62°12' E 005°34'0 0.0
2018-Feb-18 01:00N 62°12' E 005°34'0 0.0
2018-Feb-18 00:29N 62°12' E 005°34'0 0.0
2018-Feb-18 00:00N 62°12' E 005°34'0 0.0
2018-Feb-17 23:30N 62°12' E 005°34'0 0.0
2018-Feb-17 23:00N 62°12' E 005°34'0 0.0
2018-Feb-17 22:30N 62°12' E 005°34'0 0.0
2018-Feb-17 22:00N 62°12' E 005°34'0 0.0
2018-Feb-17 21:30N 62°12' E 005°34'0 0.0
2018-Feb-17 21:00N 62°12' E 005°34'0 0.0
2018-Feb-17 20:29N 62°12' E 005°34'0 0.0
2018-Feb-17 20:00N 62°12' E 005°34'0 0.0
2018-Feb-17 19:30N 62°12' E 005°34'0 0.0
2018-Feb-17 19:00N 62°12' E 005°34'0 0.0
2018-Feb-17 18:30N 62°12' E 005°34'0 0.0
2018-Feb-17 18:00N 62°12' E 005°34'0 0.0
2018-Feb-17 17:30N 62°12' E 005°34'0 0.0
2018-Feb-17 17:00N 62°12' E 005°34'0 0.0
2018-Feb-17 16:30N 62°12' E 005°34'0 0.0
2018-Feb-17 16:00N 62°12' E 005°34'0 0.0
2018-Feb-17 15:30N 62°12' E 005°34'0 0.0
2018-Feb-17 15:00N 62°12' E 005°34'0 0.0
2018-Feb-17 14:30N 62°12' E 005°34'0 0.0
2018-Feb-17 14:00N 62°12' E 005°34'0 0.0
2018-Feb-17 13:30N 62°12' E 005°34'0 0.0
2018-Feb-17 12:59N 62°12' E 005°34'0 0.0
2018-Feb-17 12:29N 62°12' E 005°34'0 0.0
2018-Feb-17 12:00N 62°12' E 005°34'0 0.0
2018-Feb-17 11:30N 62°12' E 005°34'0 0.0
2018-Feb-17 11:00N 62°12' E 005°34'0 0.0
2018-Feb-17 10:28N 62°12' E 005°34'0 0.0
2018-Feb-17 09:59N 62°12' E 005°34'0 0.0
2018-Feb-17 09:30N 62°12' E 005°34'0 0.0
2018-Feb-17 08:59N 62°12' E 005°34'0 0.0
2018-Feb-17 08:30N 62°12' E 005°34'0 0.0
2018-Feb-17 08:00N 62°12' E 005°34'0 0.0
2018-Feb-17 07:30N 62°12' E 005°34'0 0.0
2018-Feb-17 07:00N 62°12' E 005°34'0 0.0
2018-Feb-17 06:30N 62°12' E 005°34'0 0.0
2018-Feb-17 06:00N 62°12' E 005°34'0 0.0
2018-Feb-17 05:30N 62°12' E 005°34'0 0.0
2018-Feb-17 05:00N 62°12' E 005°34'0 0.0
2018-Feb-17 04:30N 62°12' E 005°34'0 0.0
2018-Feb-17 04:00N 62°12' E 005°34'0 0.0
2018-Feb-17 03:30N 62°12' E 005°34'0 0.0
2018-Feb-17 03:00N 62°12' E 005°34'0 0.0
2018-Feb-17 02:29N 62°12' E 005°34'0 0.0
2018-Feb-17 02:00N 62°12' E 005°34'0 0.0
2018-Feb-17 01:29N 62°12' E 005°34'0 0.0
2018-Feb-17 00:58N 62°12' E 005°34'0 0.0
2018-Feb-17 00:30N 62°12' E 005°34'0 0.0
2018-Feb-17 00:00N 62°12' E 005°34'0 0.0
2018-Feb-16 23:30N 62°12' E 005°34'0 0.0
2018-Feb-16 23:00N 62°12' E 005°34'0 0.0
2018-Feb-16 22:30N 62°12' E 005°34'0 0.0
2018-Feb-16 22:00N 62°12' E 005°34'0 0.0
2018-Feb-16 21:30N 62°12' E 005°34'1 1.4
2018-Feb-16 21:00N 62°12' E 005°33'1 1.1
2018-Feb-16 20:30N 62°12' E 005°32'1 1.5
2018-Feb-16 20:00N 62°13' E 005°31'1 1.7
2018-Feb-16 19:30N 62°14' E 005°31'1 1.1
2018-Feb-16 19:00N 62°13' E 005°31'0 0.9
2018-Feb-16 18:29N 62°13' E 005°31'1 1.5
2018-Feb-16 18:00N 62°13' E 005°31'1 2.4
2018-Feb-16 17:29N 62°15' E 005°30'4 7.8
2018-Feb-16 16:59N 62°18' E 005°34'3 5.6
2018-Feb-16 16:30N 62°19' E 005°39'0 0.0
2018-Feb-16 15:59N 62°19' E 005°39'0 0.0
2018-Feb-16 15:30N 62°19' E 005°39'0 0.0
2018-Feb-16 15:00N 62°19' E 005°39'0 0.0
2018-Feb-16 14:29N 62°19' E 005°39'0 0.0
2018-Feb-16 14:00N 62°19' E 005°39'0 0.0
2018-Feb-16 13:30N 62°19' E 005°39'0 0.0
2018-Feb-16 13:00N 62°19' E 005°39'0 0.0
2018-Feb-16 12:29N 62°19' E 005°39'0 0.0
2018-Feb-16 12:00N 62°19' E 005°39'0 0.0
2018-Feb-16 11:30N 62°19' E 005°39'0 0.0
2018-Feb-16 11:00N 62°19' E 005°39'0 0.0
2018-Feb-16 10:30N 62°19' E 005°39'0 0.0
2018-Feb-16 10:00N 62°19' E 005°39'0 0.0
2018-Feb-16 09:30N 62°19' E 005°39'0 0.0
2018-Feb-16 09:00N 62°19' E 005°39'0 0.0
2018-Feb-16 08:30N 62°19' E 005°39'0 0.0
2018-Feb-16 08:00N 62°19' E 005°39'0 0.0
2018-Feb-16 07:30N 62°19' E 005°39'0 0.0
2018-Feb-16 07:00N 62°19' E 005°39'0 0.0
2018-Feb-16 06:29N 62°19' E 005°39'0 0.0
2018-Feb-16 06:00N 62°19' E 005°39'0 0.0
2018-Feb-16 05:30N 62°19' E 005°39'0 0.0
2018-Feb-16 05:00N 62°19' E 005°39'0 0.0
2018-Feb-16 04:30N 62°19' E 005°39'0 0.0
2018-Feb-16 04:00N 62°19' E 005°39'0 0.0
2018-Feb-16 03:30N 62°19' E 005°39'2 4.7
2018-Feb-16 03:00N 62°18' E 005°35'5 9.6
2018-Feb-16 02:30N 62°17' E 005°25'5 9.8
2018-Feb-16 01:59N 62°15' E 005°15'510.2
2018-Feb-16 01:30N 62°12' E 005°06'5 9.2
2018-Feb-16 01:00N 62°08' E 005°05'5 9.7
2018-Feb-16 00:30N 62°03' E 005°08'510.1
2018-Feb-16 00:00N 61°58' E 005°09'4 8.8
2018-Feb-15 23:30N 61°54' E 005°10'510.4
2018-Feb-15 23:00N 61°54' E 005°21'510.1
2018-Feb-15 22:30N 61°55' E 005°31'3 6.5
2018-Feb-15 22:00N 61°54' E 005°38'0 0.0
2018-Feb-15 21:30N 61°54' E 005°38'0 0.0
2018-Feb-15 21:00N 61°54' E 005°38'0 0.0
2018-Feb-15 20:30N 61°54' E 005°38'0 0.0
2018-Feb-15 20:00N 61°54' E 005°38'0 0.0
2018-Feb-15 19:30N 61°54' E 005°38'0 0.0
2018-Feb-15 19:00N 61°54' E 005°38'0 0.0
2018-Feb-15 18:30N 61°54' E 005°38'0 0.0
2018-Feb-15 18:00N 61°54' E 005°38'0 0.0
2018-Feb-15 17:30N 61°54' E 005°38'0 0.0
2018-Feb-15 16:59N 61°54' E 005°38'0 0.3
2018-Feb-15 16:31N 61°54' E 005°38'1 1.3
2018-Feb-15 15:58N 61°54' E 005°39'0 0.8
2018-Feb-15 15:30N 61°54' E 005°40'0 0.3
2018-Feb-15 15:00N 61°54' E 005°40'0 0.8
2018-Feb-15 14:30N 61°54' E 005°40'0 0.7
2018-Feb-15 14:00N 61°54' E 005°39'0 0.8
2018-Feb-15 13:30N 61°54' E 005°38'0 0.7
2018-Feb-15 13:00N 61°54' E 005°37'0 0.4
2018-Feb-15 12:29N 61°54' E 005°37'0 0.5
2018-Feb-15 12:00N 61°55' E 005°37'0 0.4
2018-Feb-15 11:30N 61°55' E 005°37'0 0.4
2018-Feb-15 11:00N 61°55' E 005°36'0 0.4
2018-Feb-15 10:30N 61°55' E 005°37'0 0.4
2018-Feb-15 10:00N 61°55' E 005°37'0 0.4
2018-Feb-15 09:30N 61°55' E 005°37'0 0.0
2018-Feb-15 09:00N 61°55' E 005°37'1 1.7
2018-Feb-15 08:30N 61°55' E 005°35'1 2.7
2018-Feb-15 08:00N 61°55' E 005°33'3 6.6
2018-Feb-15 07:30N 61°55' E 005°26'4 7.4
2018-Feb-15 07:00N 61°54' E 005°18'4 8.6
2018-Feb-15 06:30N 61°54' E 005°09'2 4.6
2018-Feb-15 06:00N 61°56' E 005°07'0 0.0
2018-Feb-15 05:29N 61°56' E 005°07'0 0.0
2018-Feb-15 05:00N 61°56' E 005°07'0 0.0
2018-Feb-15 04:30N 61°56' E 005°07'0 0.0
2018-Feb-15 04:00N 61°56' E 005°07'0 0.0
2018-Feb-15 03:30N 61°56' E 005°07'0 0.0
2018-Feb-15 03:00N 61°56' E 005°07'0 0.0
2018-Feb-15 02:30N 61°56' E 005°07'0 0.0
2018-Feb-15 02:00N 61°56' E 005°07'0 0.0
2018-Feb-15 01:30N 61°56' E 005°07'0 0.0
2018-Feb-15 01:00N 61°56' E 005°07'0 0.0
2018-Feb-15 00:30N 61°56' E 005°07'0 0.0
2018-Feb-15 00:00N 61°56' E 005°07'0 0.0
2018-Feb-14 23:29N 61°56' E 005°07'0 0.0
2018-Feb-14 22:59N 61°56' E 005°07'0 0.0
2018-Feb-14 22:30N 61°56' E 005°07'0 0.0
2018-Feb-14 22:00N 61°56' E 005°07'0 0.0
2018-Feb-14 21:30N 61°56' E 005°07'0 0.0
2018-Feb-14 21:00N 61°56' E 005°07'0 0.0
2018-Feb-14 20:30N 61°56' E 005°07'0 0.0
2018-Feb-14 20:00N 61°56' E 005°07'0 0.0
2018-Feb-14 19:30N 61°56' E 005°07'0 0.0
2018-Feb-14 19:00N 61°56' E 005°07'2 3.6
2018-Feb-14 18:30N 61°57' E 005°09'5 9.5
2018-Feb-14 18:00N 62°02' E 005°09'5 9.7
2018-Feb-14 17:30N 62°07' E 005°05'4 7.8
2018-Feb-14 17:00N 62°11' E 005°04'4 7.8
2018-Feb-14 16:30N 62°13' E 005°10'510.2
2018-Feb-14 15:59N 62°11' E 005°20'5 9.2
2018-Feb-14 15:30N 62°12' E 005°29'1 2.5
2018-Feb-14 14:59N 62°13' E 005°31'1 2.3
2018-Feb-14 14:30N 62°12' E 005°31'1 1.6
2018-Feb-14 14:00N 62°13' E 005°31'1 1.5
2018-Feb-14 13:30N 62°14' E 005°31'2 4.5
2018-Feb-14 13:00N 62°16' E 005°30'5 9.5
2018-Feb-14 12:30N 62°19' E 005°39'1 1.2
2018-Feb-14 12:00N 62°19' E 005°39'0 0.0
2018-Feb-14 11:29N 62°19' E 005°39'0 0.0
2018-Feb-14 11:00N 62°19' E 005°39'0 0.0
2018-Feb-14 10:29N 62°19' E 005°39'0 0.0
2018-Feb-14 09:58N 62°19' E 005°39'0 0.0
2018-Feb-14 09:30N 62°19' E 005°39'0 0.0
2018-Feb-14 09:00N 62°19' E 005°39'0 0.0
2018-Feb-14 08:30N 62°19' E 005°39'0 0.0
2018-Feb-14 08:00N 62°19' E 005°39'0 0.0
2018-Feb-14 07:30N 62°19' E 005°39'0 0.0
2018-Feb-14 07:00N 62°19' E 005°39'0 0.0
2018-Feb-14 06:30N 62°19' E 005°39'0 0.0
2018-Feb-14 06:00N 62°19' E 005°39'0 0.0
2018-Feb-14 05:30N 62°19' E 005°39'0 0.0
2018-Feb-14 05:00N 62°19' E 005°39'0 0.0
2018-Feb-14 04:30N 62°19' E 005°39'0 0.0
2018-Feb-14 03:59N 62°19' E 005°39'0 0.0
2018-Feb-14 03:30N 62°19' E 005°39'0 0.0
2018-Feb-14 03:00N 62°19' E 005°39'0 0.0
2018-Feb-14 02:30N 62°19' E 005°39'0 0.0
2018-Feb-14 02:00N 62°19' E 005°39'0 0.0
2018-Feb-14 01:30N 62°19' E 005°39'0 0.0
2018-Feb-14 00:59N 62°19' E 005°39'0 0.0
2018-Feb-14 00:30N 62°19' E 005°39'0 0.0
2018-Feb-14 00:00N 62°19' E 005°39'0 0.0
2018-Feb-13 23:30N 62°19' E 005°39'0 0.0
2018-Feb-13 23:00N 62°19' E 005°39'0 0.0
2018-Feb-13 22:30N 62°19' E 005°39'0 0.0
2018-Feb-13 22:00N 62°19' E 005°39'0 0.0
2018-Feb-13 21:29N 62°19' E 005°39'0 0.0
2018-Feb-13 21:00N 62°19' E 005°39'0 0.5
2018-Feb-13 20:30N 62°19' E 005°40'5 8.8
2018-Feb-13 19:59N 62°18' E 005°31'5 9.5
2018-Feb-13 19:29N 62°17' E 005°21'5 9.9
2018-Feb-13 19:00N 62°14' E 005°12'510.1
2018-Feb-13 18:30N 62°11' E 005°04'5 9.9
2018-Feb-13 18:00N 62°06' E 005°06'5 9.5
2018-Feb-13 17:29N 62°03' E 005°15'4 7.2
2018-Feb-13 16:59N 62°01' E 005°20'0 0.0
2018-Feb-13 16:30N 62°01' E 005°20'0 0.5
2018-Feb-13 15:59N 62°01' E 005°19'4 9.0
2018-Feb-13 15:29N 62°04' E 005°13'5 9.4
2018-Feb-13 15:00N 62°07' E 005°05'4 8.6
2018-Feb-13 14:30N 62°11' E 005°04'5 9.2
2018-Feb-13 14:00N 62°14' E 005°12'5 9.6
2018-Feb-13 13:30N 62°17' E 005°21'510.4
2018-Feb-13 13:00N 62°18' E 005°32'4 8.0
2018-Feb-13 12:30N 62°19' E 005°39'0 0.1
2018-Feb-13 12:00N 62°19' E 005°39'0 0.0
2018-Feb-13 11:30N 62°19' E 005°39'0 0.0
2018-Feb-13 11:00N 62°19' E 005°39'0 0.0
2018-Feb-13 10:30N 62°19' E 005°39'0 0.0
2018-Feb-13 10:00N 62°19' E 005°39'0 0.0
2018-Feb-13 09:30N 62°19' E 005°39'0 0.0
2018-Feb-13 09:00N 62°19' E 005°39'0 0.0
2018-Feb-13 08:29N 62°19' E 005°39'0 0.0
2018-Feb-13 08:00N 62°19' E 005°39'0 0.0
2018-Feb-13 07:30N 62°19' E 005°39'0 0.0
2018-Feb-13 07:00N 62°19' E 005°39'0 0.0
2018-Feb-13 06:29N 62°19' E 005°39'0 0.0
2018-Feb-13 06:00N 62°19' E 005°39'0 0.0
2018-Feb-13 05:30N 62°19' E 005°39'0 0.0
2018-Feb-13 05:00N 62°19' E 005°39'0 0.0
2018-Feb-13 04:30N 62°19' E 005°39'0 0.0
2018-Feb-13 04:00N 62°19' E 005°39'0 0.0
2018-Feb-13 03:30N 62°19' E 005°39'0 0.0
2018-Feb-13 03:00N 62°19' E 005°39'0 0.0
2018-Feb-13 02:30N 62°19' E 005°39'0 0.0
2018-Feb-13 02:00N 62°19' E 005°39'0 0.0
2018-Feb-13 01:30N 62°19' E 005°39'0 0.0
2018-Feb-13 01:00N 62°19' E 005°39'0 0.0
2018-Feb-13 00:30N 62°19' E 005°39'0 0.2
2018-Feb-13 00:00N 62°19' E 005°40'3 5.4
2018-Feb-12 23:30N 62°18' E 005°34'5 9.0
2018-Feb-12 23:00N 62°17' E 005°25'5 9.5
2018-Feb-12 22:30N 62°15' E 005°15'5 9.3
2018-Feb-12 22:00N 62°13' E 005°07'4 8.5
2018-Feb-12 21:29N 62°08' E 005°05'4 8.1
2018-Feb-12 21:00N 62°05' E 005°09'5 9.0
2018-Feb-12 20:29N 62°02' E 005°17'2 4.6
2018-Feb-12 19:59N 62°01' E 005°20'0 0.0
2018-Feb-12 19:30N 62°01' E 005°20'0 0.0
2018-Feb-12 19:00N 62°01' E 005°20'0 0.1
2018-Feb-12 18:29N 62°01' E 005°20'0 0.0
2018-Feb-12 18:00N 62°01' E 005°20'2 3.8
2018-Feb-12 17:29N 62°02' E 005°17'510.9
2018-Feb-12 16:59N 62°05' E 005°08'5 9.6
2018-Feb-12 16:30N 62°10' E 005°04'4 8.8
2018-Feb-12 16:00N 62°13' E 005°10'5 9.3
2018-Feb-12 15:30N 62°11' E 005°19'5 9.3
2018-Feb-12 15:00N 62°12' E 005°28'5 9.7
2018-Feb-12 14:30N 62°17' E 005°31'5 9.2
2018-Feb-12 14:00N 62°19' E 005°40'0 0.6
2018-Feb-12 13:30N 62°19' E 005°39'0 0.0
2018-Feb-12 13:00N 62°19' E 005°39'0 0.0
2018-Feb-12 12:30N 62°19' E 005°39'0 0.0
2018-Feb-12 12:00N 62°19' E 005°39'0 0.0
2018-Feb-12 11:30N 62°19' E 005°39'0 0.0
2018-Feb-12 11:00N 62°19' E 005°39'0 0.0
2018-Feb-12 10:30N 62°19' E 005°39'0 0.0
2018-Feb-12 10:00N 62°19' E 005°39'0 0.0
2018-Feb-12 09:30N 62°19' E 005°39'0 0.0
2018-Feb-12 09:00N 62°19' E 005°39'0 0.0
2018-Feb-12 08:30N 62°19' E 005°39'0 0.0
2018-Feb-12 08:00N 62°19' E 005°39'0 0.0
2018-Feb-12 07:30N 62°19' E 005°39'0 0.0
2018-Feb-12 06:59N 62°19' E 005°39'0 0.0
2018-Feb-12 06:30N 62°19' E 005°39'0 0.0
2018-Feb-12 06:00N 62°19' E 005°39'0 0.1
2018-Feb-12 05:30N 62°19' E 005°39'0 0.1
2018-Feb-12 05:00N 62°19' E 005°39'0 0.0
2018-Feb-12 04:30N 62°19' E 005°39'0 0.0
2018-Feb-12 04:00N 62°19' E 005°39'0 0.0
2018-Feb-12 03:30N 62°19' E 005°39'0 0.0
2018-Feb-12 03:00N 62°19' E 005°39'0 0.0
2018-Feb-12 02:30N 62°19' E 005°39'0 0.0
2018-Feb-12 02:00N 62°19' E 005°39'0 0.0
2018-Feb-12 01:30N 62°19' E 005°39'0 0.0
2018-Feb-12 01:00N 62°19' E 005°39'0 0.0
2018-Feb-12 00:30N 62°19' E 005°39'0 0.0
2018-Feb-12 00:00N 62°19' E 005°39'0 0.0
2018-Feb-11 23:30N 62°19' E 005°39'0 0.0
2018-Feb-11 23:00N 62°19' E 005°39'0 0.0
2018-Feb-11 22:30N 62°19' E 005°39'0 0.0
2018-Feb-11 22:00N 62°19' E 005°39'0 0.0
2018-Feb-11 21:30N 62°19' E 005°39'0 0.0
2018-Feb-11 20:59N 62°19' E 005°39'3 5.3
2018-Feb-11 20:30N 62°18' E 005°35'5 9.1
2018-Feb-11 20:00N 62°14' E 005°31'5 9.1
2018-Feb-11 19:30N 62°11' E 005°38'510.2
2018-Feb-11 19:00N 62°12' E 005°48'5 9.2
2018-Feb-11 18:30N 62°11' E 005°58'3 6.2
2018-Feb-11 18:00N 62°08' E 006°01'0 0.0
2018-Feb-11 17:30N 62°08' E 006°01'0 0.0
2018-Feb-11 17:00N 62°08' E 006°01'3 6.0
2018-Feb-11 16:29N 62°11' E 005°58'5 9.7
2018-Feb-11 16:00N 62°12' E 005°48'510.8
2018-Feb-11 15:30N 62°11' E 005°37'5 9.4
2018-Feb-11 15:00N 62°15' E 005°31'5 9.4
2018-Feb-11 14:30N 62°18' E 005°36'2 3.4
2018-Feb-11 14:00N 62°19' E 005°39'0 0.0
2018-Feb-11 13:30N 62°19' E 005°39'0 0.0
2018-Feb-11 13:00N 62°19' E 005°39'0 0.0
2018-Feb-11 12:30N 62°19' E 005°39'0 0.0
2018-Feb-11 12:00N 62°19' E 005°39'0 0.0
2018-Feb-11 11:30N 62°19' E 005°39'0 0.0
2018-Feb-11 11:00N 62°19' E 005°39'0 0.0
2018-Feb-11 10:30N 62°19' E 005°39'0 0.0
2018-Feb-11 10:00N 62°19' E 005°39'0 0.0
2018-Feb-11 09:30N 62°19' E 005°39'0 0.0
2018-Feb-11 09:00N 62°19' E 005°39'0 0.0
2018-Feb-11 08:30N 62°19' E 005°39'0 0.0
2018-Feb-11 08:00N 62°19' E 005°39'0 0.0
2018-Feb-11 07:30N 62°19' E 005°39'0 0.0
2018-Feb-11 06:59N 62°19' E 005°39'0 0.0
2018-Feb-11 06:30N 62°19' E 005°39'0 0.0
2018-Feb-11 06:00N 62°19' E 005°39'0 0.0
2018-Feb-11 05:29N 62°19' E 005°39'0 0.0
2018-Feb-11 05:00N 62°19' E 005°39'0 0.0
2018-Feb-11 04:30N 62°19' E 005°39'0 0.0
2018-Feb-11 04:00N 62°19' E 005°39'0 0.0
2018-Feb-11 03:30N 62°19' E 005°39'0 0.0
2018-Feb-11 03:00N 62°19' E 005°39'0 0.0
2018-Feb-11 02:29N 62°19' E 005°39'0 0.0
2018-Feb-11 02:00N 62°19' E 005°39'0 0.0
2018-Feb-11 01:30N 62°19' E 005°39'0 0.0
2018-Feb-11 01:00N 62°19' E 005°39'0 0.0
2018-Feb-11 00:30N 62°19' E 005°39'0 0.0
2018-Feb-11 00:00N 62°19' E 005°39'0 0.0
2018-Feb-10 23:30N 62°19' E 005°39'0 0.0
2018-Feb-10 23:00N 62°19' E 005°39'0 0.0
2018-Feb-10 22:30N 62°19' E 005°39'0 0.0
2018-Feb-10 22:00N 62°19' E 005°39'0 0.0
2018-Feb-10 21:29N 62°19' E 005°39'0 0.0
2018-Feb-10 21:00N 62°19' E 005°39'0 0.0
2018-Feb-10 20:30N 62°19' E 005°39'0 0.0
2018-Feb-10 20:00N 62°19' E 005°39'0 0.0
2018-Feb-10 19:30N 62°19' E 005°39'  

Dump ship's entire track history